sensor_id;sensor_type;location;lat;lon;timestamp;P1;durP1;ratioP1;P2;durP2;ratioP2
76284;SDS011;65096;50.998;7.098;2023-02-26T00:00:00;10.85;;;5.03;;
76284;SDS011;65096;50.998;7.098;2023-02-26T00:02:28;13.75;;;5.32;;
76284;SDS011;65096;50.998;7.098;2023-02-26T00:04:56;9.35;;;4.63;;
76284;SDS011;65096;50.998;7.098;2023-02-26T00:07:23;8.70;;;4.53;;
76284;SDS011;65096;50.998;7.098;2023-02-26T00:09:53;11.43;;;4.63;;
76284;SDS011;65096;50.998;7.098;2023-02-26T00:12:20;9.52;;;4.22;;
76284;SDS011;65096;50.998;7.098;2023-02-26T00:14:48;11.13;;;5.03;;
76284;SDS011;65096;50.998;7.098;2023-02-26T00:17:21;11.77;;;4.47;;
76284;SDS011;65096;50.998;7.098;2023-02-26T00:19:59;9.85;;;4.63;;
76284;SDS011;65096;50.998;7.098;2023-02-26T00:22:26;11.75;;;4.32;;
76284;SDS011;65096;50.998;7.098;2023-02-26T00:24:53;11.15;;;4.55;;
76284;SDS011;65096;50.998;7.098;2023-02-26T00:27:20;10.43;;;4.95;;
76284;SDS011;65096;50.998;7.098;2023-02-26T00:29:47;11.07;;;5.07;;
76284;SDS011;65096;50.998;7.098;2023-02-26T00:32:14;8.98;;;4.78;;
76284;SDS011;65096;50.998;7.098;2023-02-26T00:34:42;11.98;;;5.20;;
76284;SDS011;65096;50.998;7.098;2023-02-26T00:37:14;11.23;;;4.75;;
76284;SDS011;65096;50.998;7.098;2023-02-26T00:39:50;11.55;;;4.90;;
76284;SDS011;65096;50.998;7.098;2023-02-26T00:42:25;10.88;;;4.93;;
76284;SDS011;65096;50.998;7.098;2023-02-26T00:44:52;10.75;;;5.15;;
76284;SDS011;65096;50.998;7.098;2023-02-26T00:47:21;12.60;;;4.88;;
76284;SDS011;65096;50.998;7.098;2023-02-26T00:49:58;11.95;;;5.35;;
76284;SDS011;65096;50.998;7.098;2023-02-26T00:52:35;11.13;;;4.60;;
76284;SDS011;65096;50.998;7.098;2023-02-26T00:55:08;9.77;;;4.57;;
76284;SDS011;65096;50.998;7.098;2023-02-26T00:57:34;10.98;;;4.82;;
76284;SDS011;65096;50.998;7.098;2023-02-26T01:00:01;11.05;;;5.15;;
76284;SDS011;65096;50.998;7.098;2023-02-26T01:02:31;11.80;;;4.50;;
76284;SDS011;65096;50.998;7.098;2023-02-26T01:04:58;10.15;;;4.22;;
76284;SDS011;65096;50.998;7.098;2023-02-26T01:07:26;11.55;;;4.15;;
76284;SDS011;65096;50.998;7.098;2023-02-26T01:09:55;11.43;;;3.85;;
76284;SDS011;65096;50.998;7.098;2023-02-26T01:12:22;8.57;;;4.00;;
76284;SDS011;65096;50.998;7.098;2023-02-26T01:14:50;8.45;;;4.20;;
76284;SDS011;65096;50.998;7.098;2023-02-26T01:17:18;10.73;;;3.90;;
76284;SDS011;65096;50.998;7.098;2023-02-26T01:19:49;12.25;;;4.22;;
76284;SDS011;65096;50.998;7.098;2023-02-26T01:22:19;9.40;;;4.00;;
76284;SDS011;65096;50.998;7.098;2023-02-26T01:24:50;11.63;;;3.70;;
76284;SDS011;65096;50.998;7.098;2023-02-26T01:27:23;7.53;;;3.40;;
76284;SDS011;65096;50.998;7.098;2023-02-26T01:29:50;8.40;;;3.80;;
76284;SDS011;65096;50.998;7.098;2023-02-26T01:32:18;9.50;;;3.90;;
76284;SDS011;65096;50.998;7.098;2023-02-26T01:37:21;7.45;;;3.05;;
76284;SDS011;65096;50.998;7.098;2023-02-26T01:40:00;8.50;;;3.13;;
76284;SDS011;65096;50.998;7.098;2023-02-26T01:42:49;8.43;;;3.33;;
76284;SDS011;65096;50.998;7.098;2023-02-26T01:45:20;7.88;;;3.00;;
76284;SDS011;65096;50.998;7.098;2023-02-26T01:47:55;9.57;;;3.10;;
76284;SDS011;65096;50.998;7.098;2023-02-26T01:55:49;11.35;;;3.17;;
76284;SDS011;65096;50.998;7.098;2023-02-26T01:58:20;9.45;;;3.10;;
76284;SDS011;65096;50.998;7.098;2023-02-26T02:00:48;7.13;;;3.15;;
76284;SDS011;65096;50.998;7.098;2023-02-26T02:03:16;7.70;;;3.22;;
76284;SDS011;65096;50.998;7.098;2023-02-26T02:05:46;13.18;;;3.40;;
76284;SDS011;65096;50.998;7.098;2023-02-26T02:08:15;9.13;;;2.92;;
76284;SDS011;65096;50.998;7.098;2023-02-26T02:10:43;8.77;;;2.60;;
76284;SDS011;65096;50.998;7.098;2023-02-26T02:13:14;7.28;;;3.30;;
76284;SDS011;65096;50.998;7.098;2023-02-26T02:15:54;7.35;;;2.53;;
76284;SDS011;65096;50.998;7.098;2023-02-26T02:18:33;10.40;;;3.47;;
76284;SDS011;65096;50.998;7.098;2023-02-26T02:24:10;7.32;;;3.13;;
76284;SDS011;65096;50.998;7.098;2023-02-26T02:29:29;8.50;;;2.72;;
76284;SDS011;65096;50.998;7.098;2023-02-26T02:32:13;7.32;;;2.33;;
76284;SDS011;65096;50.998;7.098;2023-02-26T02:34:45;8.88;;;2.45;;
76284;SDS011;65096;50.998;7.098;2023-02-26T02:37:16;7.00;;;2.60;;
76284;SDS011;65096;50.998;7.098;2023-02-26T02:39:47;6.75;;;2.47;;
76284;SDS011;65096;50.998;7.098;2023-02-26T02:42:19;6.65;;;2.58;;
76284;SDS011;65096;50.998;7.098;2023-02-26T02:44:54;7.10;;;2.63;;
76284;SDS011;65096;50.998;7.098;2023-02-26T02:47:25;5.75;;;2.10;;
76284;SDS011;65096;50.998;7.098;2023-02-26T02:49:55;6.13;;;2.05;;
76284;SDS011;65096;50.998;7.098;2023-02-26T02:52:28;5.28;;;2.30;;
76284;SDS011;65096;50.998;7.098;2023-02-26T02:55:02;8.02;;;2.45;;
76284;SDS011;65096;50.998;7.098;2023-02-26T02:57:34;4.80;;;1.95;;
76284;SDS011;65096;50.998;7.098;2023-02-26T03:00:06;6.20;;;2.15;;
76284;SDS011;65096;50.998;7.098;2023-02-26T03:02:38;5.20;;;2.45;;
76284;SDS011;65096;50.998;7.098;2023-02-26T03:05:08;5.65;;;2.10;;
76284;SDS011;65096;50.998;7.098;2023-02-26T03:07:38;8.60;;;2.30;;
76284;SDS011;65096;50.998;7.098;2023-02-26T03:10:10;5.32;;;2.10;;
76284;SDS011;65096;50.998;7.098;2023-02-26T03:12:38;4.70;;;1.90;;
76284;SDS011;65096;50.998;7.098;2023-02-26T03:15:05;5.72;;;2.00;;
76284;SDS011;65096;50.998;7.098;2023-02-26T03:17:35;6.60;;;2.05;;
76284;SDS011;65096;50.998;7.098;2023-02-26T03:20:13;5.50;;;2.10;;
76284;SDS011;65096;50.998;7.098;2023-02-26T03:22:48;6.78;;;2.20;;
76284;SDS011;65096;50.998;7.098;2023-02-26T03:25:26;4.53;;;1.80;;
76284;SDS011;65096;50.998;7.098;2023-02-26T03:27:57;4.70;;;1.77;;
76284;SDS011;65096;50.998;7.098;2023-02-26T03:30:33;5.25;;;1.73;;
76284;SDS011;65096;50.998;7.098;2023-02-26T03:33:07;5.00;;;1.90;;
76284;SDS011;65096;50.998;7.098;2023-02-26T03:35:41;7.50;;;2.10;;
76284;SDS011;65096;50.998;7.098;2023-02-26T03:38:14;6.93;;;2.60;;
76284;SDS011;65096;50.998;7.098;2023-02-26T03:40:46;5.45;;;2.20;;
76284;SDS011;65096;50.998;7.098;2023-02-26T03:43:18;4.78;;;1.70;;
76284;SDS011;65096;50.998;7.098;2023-02-26T03:45:49;4.07;;;1.90;;
76284;SDS011;65096;50.998;7.098;2023-02-26T03:48:22;3.58;;;1.63;;
76284;SDS011;65096;50.998;7.098;2023-02-26T03:50:53;4.35;;;1.60;;
76284;SDS011;65096;50.998;7.098;2023-02-26T03:53:25;4.22;;;1.70;;
76284;SDS011;65096;50.998;7.098;2023-02-26T03:55:57;4.35;;;2.17;;
76284;SDS011;65096;50.998;7.098;2023-02-26T03:58:31;4.32;;;1.90;;
76284;SDS011;65096;50.998;7.098;2023-02-26T04:01:00;5.75;;;2.10;;
76284;SDS011;65096;50.998;7.098;2023-02-26T04:03:31;4.22;;;1.83;;
76284;SDS011;65096;50.998;7.098;2023-02-26T04:06:03;7.20;;;2.30;;
76284;SDS011;65096;50.998;7.098;2023-02-26T04:08:31;7.05;;;1.88;;
76284;SDS011;65096;50.998;7.098;2023-02-26T04:10:58;5.72;;;1.75;;
76284;SDS011;65096;50.998;7.098;2023-02-26T04:13:31;6.43;;;2.00;;
76284;SDS011;65096;50.998;7.098;2023-02-26T04:15:58;4.18;;;1.70;;
76284;SDS011;65096;50.998;7.098;2023-02-26T04:18:24;5.38;;;1.75;;
76284;SDS011;65096;50.998;7.098;2023-02-26T04:20:52;5.90;;;2.00;;
76284;SDS011;65096;50.998;7.098;2023-02-26T04:23:19;6.60;;;2.08;;
76284;SDS011;65096;50.998;7.098;2023-02-26T04:25:46;5.85;;;1.90;;
76284;SDS011;65096;50.998;7.098;2023-02-26T04:28:13;4.18;;;1.90;;
76284;SDS011;65096;50.998;7.098;2023-02-26T04:30:39;9.45;;;2.05;;
76284;SDS011;65096;50.998;7.098;2023-02-26T04:35:32;5.65;;;1.77;;
76284;SDS011;65096;50.998;7.098;2023-02-26T04:38:00;4.07;;;1.75;;
76284;SDS011;65096;50.998;7.098;2023-02-26T04:40:30;6.80;;;2.08;;
76284;SDS011;65096;50.998;7.098;2023-02-26T04:42:57;6.22;;;2.00;;
76284;SDS011;65096;50.998;7.098;2023-02-26T04:45:24;3.65;;;1.70;;
76284;SDS011;65096;50.998;7.098;2023-02-26T04:47:50;4.30;;;2.00;;
76284;SDS011;65096;50.998;7.098;2023-02-26T04:50:17;5.85;;;1.80;;
76284;SDS011;65096;50.998;7.098;2023-02-26T04:52:44;5.05;;;1.80;;
76284;SDS011;65096;50.998;7.098;2023-02-26T04:55:12;4.97;;;1.63;;
76284;SDS011;65096;50.998;7.098;2023-02-26T04:57:39;4.00;;;1.67;;
76284;SDS011;65096;50.998;7.098;2023-02-26T05:02:33;5.50;;;1.60;;
76284;SDS011;65096;50.998;7.098;2023-02-26T05:05:00;2.80;;;1.60;;
76284;SDS011;65096;50.998;7.098;2023-02-26T05:07:26;5.53;;;2.00;;
76284;SDS011;65096;50.998;7.098;2023-02-26T05:09:53;3.97;;;1.88;;
76284;SDS011;65096;50.998;7.098;2023-02-26T05:12:21;5.07;;;1.60;;
76284;SDS011;65096;50.998;7.098;2023-02-26T05:14:48;5.85;;;1.88;;
76284;SDS011;65096;50.998;7.098;2023-02-26T05:17:14;4.22;;;1.52;;
76284;SDS011;65096;50.998;7.098;2023-02-26T05:19:41;6.60;;;2.03;;
76284;SDS011;65096;50.998;7.098;2023-02-26T05:22:08;6.13;;;1.73;;
76284;SDS011;65096;50.998;7.098;2023-02-26T05:24:34;5.75;;;2.30;;
76284;SDS011;65096;50.998;7.098;2023-02-26T05:27:01;6.40;;;1.90;;
76284;SDS011;65096;50.998;7.098;2023-02-26T05:29:29;6.05;;;1.92;;
76284;SDS011;65096;50.998;7.098;2023-02-26T05:31:56;4.40;;;1.80;;
76284;SDS011;65096;50.998;7.098;2023-02-26T05:34:23;7.05;;;2.03;;
76284;SDS011;65096;50.998;7.098;2023-02-26T05:36:50;3.63;;;1.77;;
76284;SDS011;65096;50.998;7.098;2023-02-26T05:39:16;5.65;;;1.80;;
76284;SDS011;65096;50.998;7.098;2023-02-26T05:41:43;3.25;;;1.60;;
76284;SDS011;65096;50.998;7.098;2023-02-26T05:44:11;5.78;;;2.13;;
76284;SDS011;65096;50.998;7.098;2023-02-26T05:46:39;3.50;;;1.70;;
76284;SDS011;65096;50.998;7.098;2023-02-26T05:49:06;5.25;;;1.90;;
76284;SDS011;65096;50.998;7.098;2023-02-26T05:51:33;6.72;;;2.13;;
76284;SDS011;65096;50.998;7.098;2023-02-26T05:54:00;4.55;;;1.70;;
76284;SDS011;65096;50.998;7.098;2023-02-26T05:56:26;6.35;;;2.40;;
76284;SDS011;65096;50.998;7.098;2023-02-26T05:58:53;3.90;;;1.60;;
76284;SDS011;65096;50.998;7.098;2023-02-26T06:01:20;5.05;;;2.00;;
76284;SDS011;65096;50.998;7.098;2023-02-26T06:03:50;5.40;;;1.80;;
76284;SDS011;65096;50.998;7.098;2023-02-26T06:06:17;2.95;;;1.70;;
76284;SDS011;65096;50.998;7.098;2023-02-26T06:08:43;6.57;;;1.73;;
76284;SDS011;65096;50.998;7.098;2023-02-26T06:11:10;6.53;;;1.90;;
76284;SDS011;65096;50.998;7.098;2023-02-26T06:13:37;3.97;;;2.00;;
76284;SDS011;65096;50.998;7.098;2023-02-26T06:16:04;8.05;;;2.40;;
76284;SDS011;65096;50.998;7.098;2023-02-26T06:18:31;5.93;;;2.17;;
76284;SDS011;65096;50.998;7.098;2023-02-26T06:20:59;3.95;;;1.67;;
76284;SDS011;65096;50.998;7.098;2023-02-26T06:23:26;5.45;;;2.08;;
76284;SDS011;65096;50.998;7.098;2023-02-26T06:25:53;5.82;;;2.25;;
76284;SDS011;65096;50.998;7.098;2023-02-26T06:28:20;5.50;;;1.90;;
76284;SDS011;65096;50.998;7.098;2023-02-26T06:30:48;8.52;;;2.25;;
76284;SDS011;65096;50.998;7.098;2023-02-26T06:33:17;6.13;;;2.15;;
76284;SDS011;65096;50.998;7.098;2023-02-26T06:35:44;7.10;;;2.28;;
76284;SDS011;65096;50.998;7.098;2023-02-26T06:38:12;6.75;;;2.50;;
76284;SDS011;65096;50.998;7.098;2023-02-26T06:40:39;5.40;;;2.10;;
76284;SDS011;65096;50.998;7.098;2023-02-26T06:43:05;5.60;;;2.25;;
76284;SDS011;65096;50.998;7.098;2023-02-26T06:45:32;4.97;;;2.10;;
76284;SDS011;65096;50.998;7.098;2023-02-26T06:47:59;5.07;;;2.15;;
76284;SDS011;65096;50.998;7.098;2023-02-26T06:50:26;7.65;;;2.42;;
76284;SDS011;65096;50.998;7.098;2023-02-26T06:52:53;7.15;;;2.45;;
76284;SDS011;65096;50.998;7.098;2023-02-26T06:57:50;5.35;;;2.47;;
76284;SDS011;65096;50.998;7.098;2023-02-26T07:00:17;5.97;;;2.53;;
76284;SDS011;65096;50.998;7.098;2023-02-26T07:02:44;7.00;;;2.50;;
76284;SDS011;65096;50.998;7.098;2023-02-26T07:05:11;5.45;;;2.60;;
76284;SDS011;65096;50.998;7.098;2023-02-26T07:07:38;6.43;;;2.67;;
76284;SDS011;65096;50.998;7.098;2023-02-26T07:15:02;7.75;;;2.60;;
76284;SDS011;65096;50.998;7.098;2023-02-26T07:17:29;7.85;;;3.20;;
76284;SDS011;65096;50.998;7.098;2023-02-26T07:19:56;4.25;;;2.42;;
76284;SDS011;65096;50.998;7.098;2023-02-26T07:22:24;7.72;;;2.83;;
76284;SDS011;65096;50.998;7.098;2023-02-26T07:24:51;7.82;;;2.88;;
76284;SDS011;65096;50.998;7.098;2023-02-26T07:27:18;5.40;;;2.72;;
76284;SDS011;65096;50.998;7.098;2023-02-26T07:29:46;8.85;;;3.15;;
76284;SDS011;65096;50.998;7.098;2023-02-26T07:32:12;6.57;;;2.95;;
76284;SDS011;65096;50.998;7.098;2023-02-26T07:34:39;7.45;;;4.60;;
76284;SDS011;65096;50.998;7.098;2023-02-26T07:37:06;8.95;;;3.67;;
76284;SDS011;65096;50.998;7.098;2023-02-26T07:39:33;7.35;;;3.22;;
76284;SDS011;65096;50.998;7.098;2023-02-26T07:42:00;6.30;;;2.95;;
76284;SDS011;65096;50.998;7.098;2023-02-26T07:44:26;6.47;;;2.75;;
76284;SDS011;65096;50.998;7.098;2023-02-26T07:46:55;6.93;;;2.90;;
76284;SDS011;65096;50.998;7.098;2023-02-26T07:49:22;8.40;;;2.40;;
76284;SDS011;65096;50.998;7.098;2023-02-26T07:51:49;6.57;;;2.78;;
76284;SDS011;65096;50.998;7.098;2023-02-26T07:54:16;7.78;;;2.58;;
76284;SDS011;65096;50.998;7.098;2023-02-26T07:56:43;7.35;;;2.70;;
76284;SDS011;65096;50.998;7.098;2023-02-26T07:59:10;5.57;;;2.83;;
76284;SDS011;65096;50.998;7.098;2023-02-26T08:01:37;6.20;;;2.88;;
76284;SDS011;65096;50.998;7.098;2023-02-26T08:04:05;10.20;;;3.38;;
76284;SDS011;65096;50.998;7.098;2023-02-26T08:06:32;6.90;;;2.78;;
76284;SDS011;65096;50.998;7.098;2023-02-26T08:08:59;5.47;;;2.72;;
76284;SDS011;65096;50.998;7.098;2023-02-26T08:11:26;9.15;;;3.50;;
76284;SDS011;65096;50.998;7.098;2023-02-26T08:13:53;12.80;;;3.45;;
76284;SDS011;65096;50.998;7.098;2023-02-26T08:16:19;6.35;;;3.10;;
76284;SDS011;65096;50.998;7.098;2023-02-26T08:18:46;9.70;;;3.75;;
76284;SDS011;65096;50.998;7.098;2023-02-26T08:21:14;5.30;;;2.80;;
76284;SDS011;65096;50.998;7.098;2023-02-26T08:23:41;4.97;;;2.63;;
76284;SDS011;65096;50.998;7.098;2023-02-26T08:26:08;4.53;;;2.75;;
76284;SDS011;65096;50.998;7.098;2023-02-26T08:28:37;5.60;;;2.30;;
76284;SDS011;65096;50.998;7.098;2023-02-26T08:31:05;5.50;;;2.50;;
76284;SDS011;65096;50.998;7.098;2023-02-26T08:33:31;7.85;;;2.88;;
76284;SDS011;65096;50.998;7.098;2023-02-26T08:35:58;4.97;;;2.22;;
76284;SDS011;65096;50.998;7.098;2023-02-26T08:38:27;5.55;;;2.30;;
76284;SDS011;65096;50.998;7.098;2023-02-26T08:40:54;5.60;;;2.75;;
76284;SDS011;65096;50.998;7.098;2023-02-26T08:43:21;5.50;;;2.25;;
76284;SDS011;65096;50.998;7.098;2023-02-26T08:45:50;5.32;;;1.90;;
76284;SDS011;65096;50.998;7.098;2023-02-26T08:48:17;4.45;;;2.05;;
76284;SDS011;65096;50.998;7.098;2023-02-26T08:50:44;2.75;;;1.80;;
76284;SDS011;65096;50.998;7.098;2023-02-26T08:53:11;4.13;;;1.73;;
76284;SDS011;65096;50.998;7.098;2023-02-26T08:55:39;3.97;;;2.10;;
76284;SDS011;65096;50.998;7.098;2023-02-26T08:58:08;4.68;;;2.22;;
76284;SDS011;65096;50.998;7.098;2023-02-26T09:00:35;3.60;;;1.70;;
76284;SDS011;65096;50.998;7.098;2023-02-26T09:03:02;7.00;;;2.13;;
76284;SDS011;65096;50.998;7.098;2023-02-26T09:05:29;3.70;;;1.70;;
76284;SDS011;65096;50.998;7.098;2023-02-26T09:07:55;4.68;;;1.60;;
76284;SDS011;65096;50.998;7.098;2023-02-26T09:10:22;5.10;;;2.42;;
76284;SDS011;65096;50.998;7.098;2023-02-26T09:12:50;4.38;;;2.10;;
76284;SDS011;65096;50.998;7.098;2023-02-26T09:15:17;2.97;;;1.50;;
76284;SDS011;65096;50.998;7.098;2023-02-26T09:17:44;5.40;;;1.95;;
76284;SDS011;65096;50.998;7.098;2023-02-26T09:20:12;6.32;;;1.70;;
76284;SDS011;65096;50.998;7.098;2023-02-26T09:22:39;3.83;;;1.50;;
76284;SDS011;65096;50.998;7.098;2023-02-26T09:25:06;3.53;;;1.52;;
76284;SDS011;65096;50.998;7.098;2023-02-26T09:27:33;4.10;;;1.10;;
76284;SDS011;65096;50.998;7.098;2023-02-26T09:30:02;3.50;;;1.30;;
76284;SDS011;65096;50.998;7.098;2023-02-26T09:32:29;2.22;;;1.30;;
76284;SDS011;65096;50.998;7.098;2023-02-26T09:34:56;4.22;;;1.33;;
76284;SDS011;65096;50.998;7.098;2023-02-26T09:37:23;7.20;;;2.00;;
76284;SDS011;65096;50.998;7.098;2023-02-26T09:39:49;3.10;;;1.60;;
76284;SDS011;65096;50.998;7.098;2023-02-26T09:42:18;5.35;;;1.50;;
76284;SDS011;65096;50.998;7.098;2023-02-26T09:44:54;3.97;;;1.42;;
76284;SDS011;65096;50.998;7.098;2023-02-26T09:47:26;3.55;;;1.33;;
76284;SDS011;65096;50.998;7.098;2023-02-26T09:50:04;4.38;;;1.65;;
76284;SDS011;65096;50.998;7.098;2023-02-26T09:52:37;2.33;;;1.17;;
76284;SDS011;65096;50.998;7.098;2023-02-26T09:55:10;3.45;;;1.33;;
76284;SDS011;65096;50.998;7.098;2023-02-26T09:57:41;2.72;;;1.17;;
76284;SDS011;65096;50.998;7.098;2023-02-26T10:00:15;3.63;;;1.20;;
76284;SDS011;65096;50.998;7.098;2023-02-26T10:02:50;2.17;;;1.13;;
76284;SDS011;65096;50.998;7.098;2023-02-26T10:05:27;2.53;;;1.23;;
76284;SDS011;65096;50.998;7.098;2023-02-26T10:08:03;4.95;;;1.10;;
76284;SDS011;65096;50.998;7.098;2023-02-26T10:10:34;2.70;;;0.98;;
76284;SDS011;65096;50.998;7.098;2023-02-26T10:13:10;2.45;;;1.10;;
76284;SDS011;65096;50.998;7.098;2023-02-26T10:15:47;1.80;;;1.17;;
76284;SDS011;65096;50.998;7.098;2023-02-26T10:18:20;4.10;;;1.40;;
76284;SDS011;65096;50.998;7.098;2023-02-26T10:20:53;3.60;;;1.08;;
76284;SDS011;65096;50.998;7.098;2023-02-26T10:23:22;4.13;;;1.48;;
76284;SDS011;65096;50.998;7.098;2023-02-26T10:25:57;2.92;;;1.40;;
76284;SDS011;65096;50.998;7.098;2023-02-26T10:28:36;4.10;;;1.00;;
76284;SDS011;65096;50.998;7.098;2023-02-26T10:31:09;3.03;;;1.05;;
76284;SDS011;65096;50.998;7.098;2023-02-26T10:33:47;2.33;;;0.80;;
76284;SDS011;65096;50.998;7.098;2023-02-26T10:36:21;2.95;;;1.00;;
76284;SDS011;65096;50.998;7.098;2023-02-26T10:38:51;2.22;;;1.00;;
76284;SDS011;65096;50.998;7.098;2023-02-26T10:41:24;1.92;;;0.80;;
76284;SDS011;65096;50.998;7.098;2023-02-26T10:43:57;1.13;;;0.82;;
76284;SDS011;65096;50.998;7.098;2023-02-26T10:46:32;4.40;;;1.45;;
76284;SDS011;65096;50.998;7.098;2023-02-26T10:51:52;3.05;;;1.13;;
76284;SDS011;65096;50.998;7.098;2023-02-26T10:54:20;1.08;;;0.60;;
76284;SDS011;65096;50.998;7.098;2023-02-26T10:56:55;2.83;;;1.10;;
76284;SDS011;65096;50.998;7.098;2023-02-26T10:59:22;3.58;;;0.95;;
76284;SDS011;65096;50.998;7.098;2023-02-26T11:01:49;5.72;;;1.05;;
76284;SDS011;65096;50.998;7.098;2023-02-26T11:04:17;2.65;;;1.10;;
76284;SDS011;65096;50.998;7.098;2023-02-26T11:06:49;2.22;;;1.08;;
76284;SDS011;65096;50.998;7.098;2023-02-26T11:09:19;4.43;;;1.23;;
76284;SDS011;65096;50.998;7.098;2023-02-26T11:11:50;1.88;;;1.20;;
76284;SDS011;65096;50.998;7.098;2023-02-26T11:14:18;3.65;;;1.13;;
76284;SDS011;65096;50.998;7.098;2023-02-26T11:16:46;3.92;;;1.30;;
76284;SDS011;65096;50.998;7.098;2023-02-26T11:19:15;1.83;;;0.80;;
76284;SDS011;65096;50.998;7.098;2023-02-26T11:21:43;2.28;;;1.02;;
76284;SDS011;65096;50.998;7.098;2023-02-26T11:24:16;1.70;;;0.85;;
76284;SDS011;65096;50.998;7.098;2023-02-26T11:26:50;3.72;;;1.20;;
76284;SDS011;65096;50.998;7.098;2023-02-26T11:29:21;2.45;;;1.05;;
76284;SDS011;65096;50.998;7.098;2023-02-26T11:31:50;1.00;;;0.77;;
76284;SDS011;65096;50.998;7.098;2023-02-26T11:34:20;1.10;;;0.90;;
76284;SDS011;65096;50.998;7.098;2023-02-26T11:36:48;2.78;;;1.05;;
76284;SDS011;65096;50.998;7.098;2023-02-26T11:39:20;3.35;;;1.65;;
76284;SDS011;65096;50.998;7.098;2023-02-26T11:41:49;1.10;;;0.75;;
76284;SDS011;65096;50.998;7.098;2023-02-26T11:44:18;3.70;;;1.13;;
76284;SDS011;65096;50.998;7.098;2023-02-26T11:46:52;3.08;;;1.40;;
76284;SDS011;65096;50.998;7.098;2023-02-26T11:49:22;2.28;;;1.00;;
76284;SDS011;65096;50.998;7.098;2023-02-26T11:52:00;5.57;;;1.35;;
76284;SDS011;65096;50.998;7.098;2023-02-26T11:54:33;3.75;;;1.13;;
76284;SDS011;65096;50.998;7.098;2023-02-26T11:57:02;2.95;;;1.10;;
76284;SDS011;65096;50.998;7.098;2023-02-26T11:59:32;2.20;;;0.93;;
76284;SDS011;65096;50.998;7.098;2023-02-26T12:02:00;5.43;;;1.75;;
76284;SDS011;65096;50.998;7.098;2023-02-26T12:04:30;3.83;;;1.00;;
76284;SDS011;65096;50.998;7.098;2023-02-26T12:06:57;5.03;;;1.20;;
76284;SDS011;65096;50.998;7.098;2023-02-26T12:09:24;3.92;;;1.10;;
76284;SDS011;65096;50.998;7.098;2023-02-26T12:12:05;2.38;;;1.55;;
76284;SDS011;65096;50.998;7.098;2023-02-26T12:14:56;1.42;;;1.05;;
76284;SDS011;65096;50.998;7.098;2023-02-26T12:17:36;2.22;;;1.00;;
76284;SDS011;65096;50.998;7.098;2023-02-26T12:20:18;3.85;;;1.30;;
76284;SDS011;65096;50.998;7.098;2023-02-26T12:22:51;3.63;;;1.48;;
76284;SDS011;65096;50.998;7.098;2023-02-26T12:25:37;4.18;;;1.15;;
76284;SDS011;65096;50.998;7.098;2023-02-26T12:28:37;2.78;;;1.27;;
76284;SDS011;65096;50.998;7.098;2023-02-26T12:31:28;3.60;;;1.25;;
76284;SDS011;65096;50.998;7.098;2023-02-26T12:34:42;2.42;;;1.10;;
76284;SDS011;65096;50.998;7.098;2023-02-26T12:37:36;3.92;;;1.23;;
76284;SDS011;65096;50.998;7.098;2023-02-26T12:40:19;1.48;;;0.77;;
76284;SDS011;65096;50.998;7.098;2023-02-26T12:43:02;2.40;;;1.00;;
76284;SDS011;65096;50.998;7.098;2023-02-26T12:45:38;2.25;;;1.33;;
76284;SDS011;65096;50.998;7.098;2023-02-26T12:50:59;2.97;;;1.08;;
76284;SDS011;65096;50.998;7.098;2023-02-26T12:56:37;2.55;;;1.17;;
76284;SDS011;65096;50.998;7.098;2023-02-26T12:59:19;2.90;;;1.20;;
76284;SDS011;65096;50.998;7.098;2023-02-26T13:02:01;1.65;;;0.90;;
76284;SDS011;65096;50.998;7.098;2023-02-26T13:04:59;8.90;;;1.50;;
76284;SDS011;65096;50.998;7.098;2023-02-26T13:10:33;3.17;;;1.67;;
76284;SDS011;65096;50.998;7.098;2023-02-26T13:13:23;1.58;;;1.10;;
76284;SDS011;65096;50.998;7.098;2023-02-26T13:16:08;3.15;;;1.10;;
76284;SDS011;65096;50.998;7.098;2023-02-26T13:18:47;1.77;;;1.10;;
76284;SDS011;65096;50.998;7.098;2023-02-26T13:21:24;4.90;;;1.73;;
76284;SDS011;65096;50.998;7.098;2023-02-26T13:23:54;4.30;;;1.60;;
76284;SDS011;65096;50.998;7.098;2023-02-26T13:26:29;2.85;;;1.27;;
76284;SDS011;65096;50.998;7.098;2023-02-26T13:28:58;1.88;;;1.00;;
76284;SDS011;65096;50.998;7.098;2023-02-26T13:34:03;2.08;;;1.08;;
76284;SDS011;65096;50.998;7.098;2023-02-26T13:36:35;2.80;;;1.02;;
76284;SDS011;65096;50.998;7.098;2023-02-26T13:39:07;3.15;;;1.00;;
76284;SDS011;65096;50.998;7.098;2023-02-26T13:41:47;2.22;;;1.10;;
76284;SDS011;65096;50.998;7.098;2023-02-26T13:44:24;4.30;;;1.15;;
76284;SDS011;65096;50.998;7.098;2023-02-26T13:49:51;2.38;;;1.13;;
76284;SDS011;65096;50.998;7.098;2023-02-26T13:52:25;2.50;;;1.30;;
76284;SDS011;65096;50.998;7.098;2023-02-26T13:54:53;2.78;;;1.08;;
76284;SDS011;65096;50.998;7.098;2023-02-26T13:57:32;2.70;;;1.30;;
76284;SDS011;65096;50.998;7.098;2023-02-26T14:00:06;2.15;;;1.13;;
76284;SDS011;65096;50.998;7.098;2023-02-26T14:02:52;2.88;;;1.15;;
76284;SDS011;65096;50.998;7.098;2023-02-26T14:05:29;2.17;;;1.30;;
76284;SDS011;65096;50.998;7.098;2023-02-26T14:08:19;3.88;;;1.20;;
76284;SDS011;65096;50.998;7.098;2023-02-26T14:10:53;2.25;;;1.65;;
76284;SDS011;65096;50.998;7.098;2023-02-26T14:13:22;2.53;;;1.02;;
76284;SDS011;65096;50.998;7.098;2023-02-26T14:15:58;3.33;;;1.13;;
76284;SDS011;65096;50.998;7.098;2023-02-26T14:18:29;3.92;;;1.30;;
76284;SDS011;65096;50.998;7.098;2023-02-26T14:24:13;2.75;;;0.90;;
76284;SDS011;65096;50.998;7.098;2023-02-26T14:26:45;3.67;;;1.88;;
76284;SDS011;65096;50.998;7.098;2023-02-26T14:29:18;3.25;;;1.52;;
76284;SDS011;65096;50.998;7.098;2023-02-26T14:34:42;2.17;;;0.88;;
76284;SDS011;65096;50.998;7.098;2023-02-26T14:37:16;2.40;;;0.85;;
76284;SDS011;65096;50.998;7.098;2023-02-26T14:39:47;2.42;;;1.30;;
76284;SDS011;65096;50.998;7.098;2023-02-26T14:42:20;2.30;;;1.00;;
76284;SDS011;65096;50.998;7.098;2023-02-26T14:47:22;2.78;;;1.00;;
76284;SDS011;65096;50.998;7.098;2023-02-26T14:49:49;3.35;;;0.95;;
76284;SDS011;65096;50.998;7.098;2023-02-26T14:58:25;2.72;;;1.13;;
76284;SDS011;65096;50.998;7.098;2023-02-26T15:01:04;1.52;;;0.95;;
76284;SDS011;65096;50.998;7.098;2023-02-26T15:03:44;2.05;;;0.93;;
76284;SDS011;65096;50.998;7.098;2023-02-26T15:06:30;2.47;;;1.10;;
76284;SDS011;65096;50.998;7.098;2023-02-26T15:09:14;3.17;;;1.05;;
76284;SDS011;65096;50.998;7.098;2023-02-26T15:11:52;3.38;;;1.50;;
76284;SDS011;65096;50.998;7.098;2023-02-26T15:14:41;3.22;;;1.20;;
76284;SDS011;65096;50.998;7.098;2023-02-26T15:17:32;1.75;;;0.88;;
76284;SDS011;65096;50.998;7.098;2023-02-26T15:20:11;4.38;;;1.60;;
76284;SDS011;65096;50.998;7.098;2023-02-26T15:22:56;2.35;;;1.02;;
76284;SDS011;65096;50.998;7.098;2023-02-26T15:25:38;2.65;;;0.90;;
76284;SDS011;65096;50.998;7.098;2023-02-26T15:28:10;1.10;;;0.82;;
76284;SDS011;65096;50.998;7.098;2023-02-26T15:30:40;2.35;;;1.00;;
76284;SDS011;65096;50.998;7.098;2023-02-26T15:33:12;3.90;;;1.30;;
76284;SDS011;65096;50.998;7.098;2023-02-26T15:35:42;2.80;;;0.85;;
76284;SDS011;65096;50.998;7.098;2023-02-26T15:38:09;5.75;;;1.25;;
76284;SDS011;65096;50.998;7.098;2023-02-26T15:40:37;2.85;;;1.35;;
76284;SDS011;65096;50.998;7.098;2023-02-26T15:43:05;3.17;;;1.20;;
76284;SDS011;65096;50.998;7.098;2023-02-26T15:45:36;3.20;;;1.20;;
76284;SDS011;65096;50.998;7.098;2023-02-26T15:48:05;3.55;;;1.35;;
76284;SDS011;65096;50.998;7.098;2023-02-26T15:50:35;3.42;;;1.17;;
76284;SDS011;65096;50.998;7.098;2023-02-26T15:53:06;2.80;;;1.30;;
76284;SDS011;65096;50.998;7.098;2023-02-26T15:55:39;3.10;;;1.10;;
76284;SDS011;65096;50.998;7.098;2023-02-26T15:58:10;2.15;;;1.10;;
76284;SDS011;65096;50.998;7.098;2023-02-26T16:00:49;4.10;;;1.70;;
76284;SDS011;65096;50.998;7.098;2023-02-26T16:03:22;2.63;;;1.20;;
76284;SDS011;65096;50.998;7.098;2023-02-26T16:05:52;2.10;;;1.10;;